sensor_id;sensor_type;location;lat;lon;timestamp;P1;durP1;ratioP1;P2;durP2;ratioP2
29314;SDS011;16320;53.954;9.506;2023-10-08T00:01:22;30.52;;;3.83;;
29314;SDS011;16320;53.954;9.506;2023-10-08T00:04:27;20.38;;;3.33;;
29314;SDS011;16320;53.954;9.506;2023-10-08T00:07:31;22.50;;;3.92;;
29314;SDS011;16320;53.954;9.506;2023-10-08T00:10:36;21.30;;;4.05;;
29314;SDS011;16320;53.954;9.506;2023-10-08T00:13:45;17.77;;;3.85;;
29314;SDS011;16320;53.954;9.506;2023-10-08T00:16:52;17.13;;;3.65;;
29314;SDS011;16320;53.954;9.506;2023-10-08T00:19:57;14.88;;;3.28;;
29314;SDS011;16320;53.954;9.506;2023-10-08T00:23:04;17.85;;;3.55;;
29314;SDS011;16320;53.954;9.506;2023-10-08T00:26:11;12.48;;;3.67;;
29314;SDS011;16320;53.954;9.506;2023-10-08T00:29:16;15.48;;;4.28;;
29314;SDS011;16320;53.954;9.506;2023-10-08T00:32:25;12.93;;;3.28;;
29314;SDS011;16320;53.954;9.506;2023-10-08T00:35:30;13.68;;;3.25;;
29314;SDS011;16320;53.954;9.506;2023-10-08T00:38:35;19.52;;;3.58;;
29314;SDS011;16320;53.954;9.506;2023-10-08T00:41:41;15.13;;;2.42;;
29314;SDS011;16320;53.954;9.506;2023-10-08T00:44:47;16.42;;;3.30;;
29314;SDS011;16320;53.954;9.506;2023-10-08T00:47:56;8.38;;;2.38;;
29314;SDS011;16320;53.954;9.506;2023-10-08T00:51:04;12.63;;;2.53;;
29314;SDS011;16320;53.954;9.506;2023-10-08T00:54:25;14.98;;;2.63;;
29314;SDS011;16320;53.954;9.506;2023-10-08T00:57:31;15.75;;;2.28;;
29314;SDS011;16320;53.954;9.506;2023-10-08T01:00:52;10.05;;;1.90;;
29314;SDS011;16320;53.954;9.506;2023-10-08T01:04:04;14.05;;;1.52;;
29314;SDS011;16320;53.954;9.506;2023-10-08T01:07:16;15.30;;;1.98;;
29314;SDS011;16320;53.954;9.506;2023-10-08T01:10:21;4.68;;;1.33;;
29314;SDS011;16320;53.954;9.506;2023-10-08T01:13:30;8.02;;;1.27;;
29314;SDS011;16320;53.954;9.506;2023-10-08T01:16:47;7.65;;;1.40;;
29314;SDS011;16320;53.954;9.506;2023-10-08T01:19:52;10.77;;;1.55;;
29314;SDS011;16320;53.954;9.506;2023-10-08T01:23:15;8.13;;;1.75;;
29314;SDS011;16320;53.954;9.506;2023-10-08T01:26:30;5.40;;;1.30;;
29314;SDS011;16320;53.954;9.506;2023-10-08T01:29:37;15.25;;;1.77;;
29314;SDS011;16320;53.954;9.506;2023-10-08T01:32:44;6.75;;;1.95;;
29314;SDS011;16320;53.954;9.506;2023-10-08T01:35:49;10.45;;;1.98;;
29314;SDS011;16320;53.954;9.506;2023-10-08T01:38:54;6.75;;;1.33;;
29314;SDS011;16320;53.954;9.506;2023-10-08T01:41:58;3.97;;;1.40;;
29314;SDS011;16320;53.954;9.506;2023-10-08T01:45:02;8.68;;;1.63;;
29314;SDS011;16320;53.954;9.506;2023-10-08T01:48:10;7.07;;;1.33;;
29314;SDS011;16320;53.954;9.506;2023-10-08T01:51:15;7.80;;;1.02;;
29314;SDS011;16320;53.954;9.506;2023-10-08T01:54:31;18.27;;;1.65;;
29314;SDS011;16320;53.954;9.506;2023-10-08T01:57:39;7.72;;;1.20;;
29314;SDS011;16320;53.954;9.506;2023-10-08T02:00:45;10.18;;;1.65;;
29314;SDS011;16320;53.954;9.506;2023-10-08T02:03:50;5.22;;;1.27;;
29314;SDS011;16320;53.954;9.506;2023-10-08T02:06:55;11.18;;;1.50;;
29314;SDS011;16320;53.954;9.506;2023-10-08T02:09:59;5.60;;;1.25;;
29314;SDS011;16320;53.954;9.506;2023-10-08T02:13:03;9.63;;;1.15;;
29314;SDS011;16320;53.954;9.506;2023-10-08T02:16:09;10.70;;;1.70;;
29314;SDS011;16320;53.954;9.506;2023-10-08T02:19:14;8.80;;;1.30;;
29314;SDS011;16320;53.954;9.506;2023-10-08T02:22:22;12.30;;;1.55;;
29314;SDS011;16320;53.954;9.506;2023-10-08T02:25:27;6.47;;;1.65;;
29314;SDS011;16320;53.954;9.506;2023-10-08T02:28:32;8.63;;;1.30;;
29314;SDS011;16320;53.954;9.506;2023-10-08T02:31:40;6.55;;;1.05;;
29314;SDS011;16320;53.954;9.506;2023-10-08T02:34:45;8.38;;;1.02;;
29314;SDS011;16320;53.954;9.506;2023-10-08T02:37:50;8.35;;;1.40;;
29314;SDS011;16320;53.954;9.506;2023-10-08T02:40:55;14.73;;;1.95;;
29314;SDS011;16320;53.954;9.506;2023-10-08T02:44:00;12.27;;;1.45;;
29314;SDS011;16320;53.954;9.506;2023-10-08T02:47:09;6.75;;;1.45;;
29314;SDS011;16320;53.954;9.506;2023-10-08T02:50:20;11.20;;;2.20;;
29314;SDS011;16320;53.954;9.506;2023-10-08T02:53:25;12.98;;;1.48;;
29314;SDS011;16320;53.954;9.506;2023-10-08T02:56:30;11.75;;;1.10;;
29314;SDS011;16320;53.954;9.506;2023-10-08T02:59:36;14.18;;;1.50;;
29314;SDS011;16320;53.954;9.506;2023-10-08T03:02:48;11.00;;;1.55;;
29314;SDS011;16320;53.954;9.506;2023-10-08T03:05:53;5.05;;;1.50;;
29314;SDS011;16320;53.954;9.506;2023-10-08T03:09:00;6.88;;;1.20;;
29314;SDS011;16320;53.954;9.506;2023-10-08T03:12:08;14.27;;;1.83;;
29314;SDS011;16320;53.954;9.506;2023-10-08T03:15:14;6.38;;;1.33;;
29314;SDS011;16320;53.954;9.506;2023-10-08T03:18:35;4.03;;;1.10;;
29314;SDS011;16320;53.954;9.506;2023-10-08T03:21:41;9.85;;;1.40;;
29314;SDS011;16320;53.954;9.506;2023-10-08T03:24:52;14.95;;;1.88;;
29314;SDS011;16320;53.954;9.506;2023-10-08T03:27:59;6.00;;;1.88;;
29314;SDS011;16320;53.954;9.506;2023-10-08T03:31:04;11.50;;;1.55;;
29314;SDS011;16320;53.954;9.506;2023-10-08T03:34:16;4.43;;;1.33;;
29314;SDS011;16320;53.954;9.506;2023-10-08T03:37:31;10.52;;;2.08;;
29314;SDS011;16320;53.954;9.506;2023-10-08T03:40:46;13.23;;;2.45;;
29314;SDS011;16320;53.954;9.506;2023-10-08T03:43:53;6.78;;;1.92;;
29314;SDS011;16320;53.954;9.506;2023-10-08T03:47:16;14.00;;;2.22;;
29314;SDS011;16320;53.954;9.506;2023-10-08T03:50:26;13.20;;;2.10;;
29314;SDS011;16320;53.954;9.506;2023-10-08T03:53:36;12.57;;;1.83;;
29314;SDS011;16320;53.954;9.506;2023-10-08T03:57:02;10.10;;;1.90;;
29314;SDS011;16320;53.954;9.506;2023-10-08T04:00:17;6.22;;;2.20;;
29314;SDS011;16320;53.954;9.506;2023-10-08T04:03:23;12.77;;;1.92;;
29314;SDS011;16320;53.954;9.506;2023-10-08T04:06:47;6.10;;;1.95;;
29314;SDS011;16320;53.954;9.506;2023-10-08T04:09:58;8.23;;;1.75;;
29314;SDS011;16320;53.954;9.506;2023-10-08T04:13:24;5.32;;;1.35;;
29314;SDS011;16320;53.954;9.506;2023-10-08T04:16:29;4.50;;;1.40;;
29314;SDS011;16320;53.954;9.506;2023-10-08T04:19:41;9.00;;;1.25;;
29314;SDS011;16320;53.954;9.506;2023-10-08T04:22:46;5.43;;;1.58;;
29314;SDS011;16320;53.954;9.506;2023-10-08T04:28:58;8.18;;;1.65;;
29314;SDS011;16320;53.954;9.506;2023-10-08T04:32:06;10.40;;;1.60;;
29314;SDS011;16320;53.954;9.506;2023-10-08T04:35:16;8.32;;;1.17;;
29314;SDS011;16320;53.954;9.506;2023-10-08T04:38:21;11.60;;;1.95;;
29314;SDS011;16320;53.954;9.506;2023-10-08T04:41:32;9.73;;;1.70;;
29314;SDS011;16320;53.954;9.506;2023-10-08T04:44:38;6.78;;;1.48;;
29314;SDS011;16320;53.954;9.506;2023-10-08T04:47:43;4.80;;;1.17;;
29314;SDS011;16320;53.954;9.506;2023-10-08T04:50:47;6.35;;;1.50;;
29314;SDS011;16320;53.954;9.506;2023-10-08T04:54:02;10.75;;;1.80;;
29314;SDS011;16320;53.954;9.506;2023-10-08T04:57:09;5.70;;;1.13;;
29314;SDS011;16320;53.954;9.506;2023-10-08T05:00:19;10.05;;;1.27;;
29314;SDS011;16320;53.954;9.506;2023-10-08T05:03:47;13.52;;;1.58;;
29314;SDS011;16320;53.954;9.506;2023-10-08T05:07:01;5.53;;;1.08;;
29314;SDS011;16320;53.954;9.506;2023-10-08T05:10:20;3.65;;;1.35;;
29314;SDS011;16320;53.954;9.506;2023-10-08T05:13:27;4.40;;;0.90;;
29314;SDS011;16320;53.954;9.506;2023-10-08T05:16:38;14.40;;;1.38;;
29314;SDS011;16320;53.954;9.506;2023-10-08T05:20:04;11.68;;;1.65;;
29314;SDS011;16320;53.954;9.506;2023-10-08T05:23:12;9.10;;;1.70;;
29314;SDS011;16320;53.954;9.506;2023-10-08T05:26:35;5.10;;;1.40;;
29314;SDS011;16320;53.954;9.506;2023-10-08T05:29:46;5.22;;;1.83;;
29314;SDS011;16320;53.954;9.506;2023-10-08T05:33:15;6.90;;;1.38;;
29314;SDS011;16320;53.954;9.506;2023-10-08T05:36:19;2.50;;;1.20;;
29314;SDS011;16320;53.954;9.506;2023-10-08T05:39:32;8.60;;;1.45;;
29314;SDS011;16320;53.954;9.506;2023-10-08T05:42:58;7.15;;;1.48;;
29314;SDS011;16320;53.954;9.506;2023-10-08T05:46:17;7.70;;;1.60;;
29314;SDS011;16320;53.954;9.506;2023-10-08T05:49:28;3.70;;;1.38;;
29314;SDS011;16320;53.954;9.506;2023-10-08T05:52:35;7.65;;;1.33;;
29314;SDS011;16320;53.954;9.506;2023-10-08T05:56:05;6.80;;;0.90;;
29314;SDS011;16320;53.954;9.506;2023-10-08T05:59:20;9.52;;;1.60;;
29314;SDS011;16320;53.954;9.506;2023-10-08T06:02:31;14.15;;;1.50;;
29314;SDS011;16320;53.954;9.506;2023-10-08T06:05:37;9.50;;;1.40;;
29314;SDS011;16320;53.954;9.506;2023-10-08T06:08:51;7.63;;;1.65;;
29314;SDS011;16320;53.954;9.506;2023-10-08T06:12:08;7.20;;;1.40;;
29314;SDS011;16320;53.954;9.506;2023-10-08T06:15:23;3.55;;;1.00;;
29314;SDS011;16320;53.954;9.506;2023-10-08T06:18:41;5.43;;;1.13;;
29314;SDS011;16320;53.954;9.506;2023-10-08T06:21:47;5.00;;;1.02;;
29314;SDS011;16320;53.954;9.506;2023-10-08T06:24:51;6.20;;;1.42;;
29314;SDS011;16320;53.954;9.506;2023-10-08T06:28:17;5.13;;;1.30;;
29314;SDS011;16320;53.954;9.506;2023-10-08T06:31:25;8.68;;;1.25;;
29314;SDS011;16320;53.954;9.506;2023-10-08T06:34:32;4.82;;;1.40;;
29314;SDS011;16320;53.954;9.506;2023-10-08T06:37:36;9.95;;;1.40;;
29314;SDS011;16320;53.954;9.506;2023-10-08T06:40:41;4.25;;;1.40;;
29314;SDS011;16320;53.954;9.506;2023-10-08T06:43:47;5.97;;;1.55;;
29314;SDS011;16320;53.954;9.506;2023-10-08T06:47:06;4.50;;;1.45;;
29314;SDS011;16320;53.954;9.506;2023-10-08T06:50:13;7.28;;;1.80;;
29314;SDS011;16320;53.954;9.506;2023-10-08T06:53:19;8.10;;;1.15;;
29314;SDS011;16320;53.954;9.506;2023-10-08T06:56:26;9.20;;;1.60;;
29314;SDS011;16320;53.954;9.506;2023-10-08T06:59:30;5.70;;;0.95;;
29314;SDS011;16320;53.954;9.506;2023-10-08T07:02:35;3.80;;;0.98;;
29314;SDS011;16320;53.954;9.506;2023-10-08T07:05:44;6.53;;;1.25;;
29314;SDS011;16320;53.954;9.506;2023-10-08T07:09:02;5.90;;;1.08;;
29314;SDS011;16320;53.954;9.506;2023-10-08T07:12:09;6.57;;;1.48;;
29314;SDS011;16320;53.954;9.506;2023-10-08T07:15:18;9.30;;;1.30;;
29314;SDS011;16320;53.954;9.506;2023-10-08T07:18:27;11.95;;;1.13;;
29314;SDS011;16320;53.954;9.506;2023-10-08T07:25:22;5.82;;;1.23;;
29314;SDS011;16320;53.954;9.506;2023-10-08T07:28:27;4.68;;;1.13;;
29314;SDS011;16320;53.954;9.506;2023-10-08T07:31:34;9.23;;;1.50;;
29314;SDS011;16320;53.954;9.506;2023-10-08T07:34:47;6.70;;;1.07;;
29314;SDS011;16320;53.954;9.506;2023-10-08T07:38:04;9.00;;;2.50;;
29314;SDS011;16320;53.954;9.506;2023-10-08T07:41:13;7.10;;;2.00;;
29314;SDS011;16320;53.954;9.506;2023-10-08T07:44:18;7.68;;;1.52;;
29314;SDS011;16320;53.954;9.506;2023-10-08T07:47:28;7.45;;;2.05;;
29314;SDS011;16320;53.954;9.506;2023-10-08T07:50:33;9.93;;;1.40;;
29314;SDS011;16320;53.954;9.506;2023-10-08T07:53:38;9.27;;;1.52;;
29314;SDS011;16320;53.954;9.506;2023-10-08T08:00:31;8.75;;;1.67;;
29314;SDS011;16320;53.954;9.506;2023-10-08T08:03:42;8.02;;;1.10;;
29314;SDS011;16320;53.954;9.506;2023-10-08T08:06:49;2.88;;;1.00;;
29314;SDS011;16320;53.954;9.506;2023-10-08T08:09:54;8.30;;;1.52;;
29314;SDS011;16320;53.954;9.506;2023-10-08T08:13:07;12.75;;;1.52;;
29314;SDS011;16320;53.954;9.506;2023-10-08T08:16:13;9.93;;;1.58;;
29314;SDS011;16320;53.954;9.506;2023-10-08T08:19:24;9.50;;;1.40;;
29314;SDS011;16320;53.954;9.506;2023-10-08T08:22:29;6.63;;;1.38;;
29314;SDS011;16320;53.954;9.506;2023-10-08T08:25:38;12.82;;;2.10;;
29314;SDS011;16320;53.954;9.506;2023-10-08T08:28:50;5.28;;;1.23;;
29314;SDS011;16320;53.954;9.506;2023-10-08T08:31:55;5.75;;;1.35;;
29314;SDS011;16320;53.954;9.506;2023-10-08T08:35:00;11.13;;;2.33;;
29314;SDS011;16320;53.954;9.506;2023-10-08T08:38:11;7.30;;;1.75;;
29314;SDS011;16320;53.954;9.506;2023-10-08T08:41:16;2.35;;;1.10;;
29314;SDS011;16320;53.954;9.506;2023-10-08T08:44:27;17.88;;;3.08;;
29314;SDS011;16320;53.954;9.506;2023-10-08T08:47:35;12.23;;;1.80;;
29314;SDS011;16320;53.954;9.506;2023-10-08T08:50:50;4.50;;;1.40;;
29314;SDS011;16320;53.954;9.506;2023-10-08T08:54:05;6.15;;;1.50;;
29314;SDS011;16320;53.954;9.506;2023-10-08T08:57:10;4.93;;;1.38;;
29314;SDS011;16320;53.954;9.506;2023-10-08T09:00:19;4.45;;;1.17;;
29314;SDS011;16320;53.954;9.506;2023-10-08T09:03:25;7.63;;;1.70;;
29314;SDS011;16320;53.954;9.506;2023-10-08T09:06:35;8.68;;;1.88;;
29314;SDS011;16320;53.954;9.506;2023-10-08T09:09:49;5.05;;;1.20;;
29314;SDS011;16320;53.954;9.506;2023-10-08T09:12:55;7.03;;;1.30;;
29314;SDS011;16320;53.954;9.506;2023-10-08T09:16:06;7.88;;;1.70;;
29314;SDS011;16320;53.954;9.506;2023-10-08T09:19:15;9.80;;;1.63;;
29314;SDS011;16320;53.954;9.506;2023-10-08T09:22:25;6.53;;;1.30;;
29314;SDS011;16320;53.954;9.506;2023-10-08T09:25:31;8.13;;;1.55;;
29314;SDS011;16320;53.954;9.506;2023-10-08T09:28:38;7.70;;;1.63;;
29314;SDS011;16320;53.954;9.506;2023-10-08T09:31:51;9.68;;;1.60;;
29314;SDS011;16320;53.954;9.506;2023-10-08T09:35:03;3.60;;;1.20;;
29314;SDS011;16320;53.954;9.506;2023-10-08T09:38:09;3.67;;;1.38;;
29314;SDS011;16320;53.954;9.506;2023-10-08T09:41:14;4.97;;;1.90;;
29314;SDS011;16320;53.954;9.506;2023-10-08T09:44:19;7.57;;;1.67;;
29314;SDS011;16320;53.954;9.506;2023-10-08T09:47:25;5.82;;;1.80;;
29314;SDS011;16320;53.954;9.506;2023-10-08T09:50:36;4.07;;;1.95;;
29314;SDS011;16320;53.954;9.506;2023-10-08T09:57:30;8.82;;;1.38;;
29314;SDS011;16320;53.954;9.506;2023-10-08T10:00:35;7.43;;;1.40;;
29314;SDS011;16320;53.954;9.506;2023-10-08T10:03:50;4.93;;;1.52;;
29314;SDS011;16320;53.954;9.506;2023-10-08T10:06:56;3.60;;;1.23;;
29314;SDS011;16320;53.954;9.506;2023-10-08T10:10:01;4.45;;;0.93;;
29314;SDS011;16320;53.954;9.506;2023-10-08T10:13:40;3.47;;;1.08;;
29314;SDS011;16320;53.954;9.506;2023-10-08T10:17:08;4.03;;;1.10;;
29314;SDS011;16320;53.954;9.506;2023-10-08T10:20:51;1.73;;;0.73;;
29314;SDS011;16320;53.954;9.506;2023-10-08T10:24:05;4.47;;;1.10;;
29314;SDS011;16320;53.954;9.506;2023-10-08T10:27:41;4.55;;;0.90;;
29314;SDS011;16320;53.954;9.506;2023-10-08T10:31:21;8.18;;;1.05;;
29314;SDS011;16320;53.954;9.506;2023-10-08T10:34:27;5.85;;;1.48;;
29314;SDS011;16320;53.954;9.506;2023-10-08T10:37:33;8.50;;;1.58;;
29314;SDS011;16320;53.954;9.506;2023-10-08T10:40:57;3.05;;;0.93;;
29314;SDS011;16320;53.954;9.506;2023-10-08T10:44:01;4.75;;;1.17;;
29314;SDS011;16320;53.954;9.506;2023-10-08T10:47:12;3.92;;;1.00;;
29314;SDS011;16320;53.954;9.506;2023-10-08T10:50:20;5.13;;;0.80;;
29314;SDS011;16320;53.954;9.506;2023-10-08T10:53:38;5.45;;;1.33;;
29314;SDS011;16320;53.954;9.506;2023-10-08T10:57:05;3.28;;;1.10;;
29314;SDS011;16320;53.954;9.506;2023-10-08T11:00:20;1.98;;;0.75;;
29314;SDS011;16320;53.954;9.506;2023-10-08T11:03:52;5.68;;;1.38;;
29314;SDS011;16320;53.954;9.506;2023-10-08T11:07:04;2.33;;;0.82;;
29314;SDS011;16320;53.954;9.506;2023-10-08T11:10:10;1.40;;;0.80;;
29314;SDS011;16320;53.954;9.506;2023-10-08T11:13:20;1.73;;;0.93;;
29314;SDS011;16320;53.954;9.506;2023-10-08T11:16:32;3.55;;;1.05;;
29314;SDS011;16320;53.954;9.506;2023-10-08T11:19:39;6.30;;;0.93;;
29314;SDS011;16320;53.954;9.506;2023-10-08T11:22:46;2.22;;;0.90;;
29314;SDS011;16320;53.954;9.506;2023-10-08T11:25:56;1.40;;;0.60;;
29314;SDS011;16320;53.954;9.506;2023-10-08T11:32:19;2.00;;;0.70;;
29314;SDS011;16320;53.954;9.506;2023-10-08T11:35:29;1.70;;;0.50;;
29314;SDS011;16320;53.954;9.506;2023-10-08T11:38:41;1.42;;;0.50;;
29314;SDS011;16320;53.954;9.506;2023-10-08T11:41:54;2.88;;;0.98;;
29314;SDS011;16320;53.954;9.506;2023-10-08T11:45:26;8.15;;;1.08;;
29314;SDS011;16320;53.954;9.506;2023-10-08T11:48:31;3.13;;;0.70;;
29314;SDS011;16320;53.954;9.506;2023-10-08T11:51:42;1.05;;;0.50;;
29314;SDS011;16320;53.954;9.506;2023-10-08T11:54:49;8.25;;;0.88;;
29314;SDS011;16320;53.954;9.506;2023-10-08T11:57:57;3.53;;;0.80;;
29314;SDS011;16320;53.954;9.506;2023-10-08T12:01:01;2.88;;;0.77;;
29314;SDS011;16320;53.954;9.506;2023-10-08T12:04:08;3.45;;;1.15;;
29314;SDS011;16320;53.954;9.506;2023-10-08T12:07:20;1.70;;;0.60;;
29314;SDS011;16320;53.954;9.506;2023-10-08T12:10:27;6.70;;;1.02;;
29314;SDS011;16320;53.954;9.506;2023-10-08T12:13:35;4.43;;;1.02;;
29314;SDS011;16320;53.954;9.506;2023-10-08T12:16:39;1.60;;;0.60;;
29314;SDS011;16320;53.954;9.506;2023-10-08T12:20:09;2.17;;;0.77;;
29314;SDS011;16320;53.954;9.506;2023-10-08T12:23:27;1.23;;;0.50;;
29314;SDS011;16320;53.954;9.506;2023-10-08T12:26:33;1.15;;;0.50;;
29314;SDS011;16320;53.954;9.506;2023-10-08T12:29:37;2.15;;;0.65;;
29314;SDS011;16320;53.954;9.506;2023-10-08T12:32:43;4.47;;;1.20;;
29314;SDS011;16320;53.954;9.506;2023-10-08T12:35:53;3.05;;;1.08;;
29314;SDS011;16320;53.954;9.506;2023-10-08T12:39:02;2.25;;;0.80;;
29314;SDS011;16320;53.954;9.506;2023-10-08T12:42:14;1.73;;;0.65;;
29314;SDS011;16320;53.954;9.506;2023-10-08T12:45:18;1.42;;;0.60;;
29314;SDS011;16320;53.954;9.506;2023-10-08T12:48:25;3.42;;;0.52;;
29314;SDS011;16320;53.954;9.506;2023-10-08T12:51:31;2.63;;;0.60;;
29314;SDS011;16320;53.954;9.506;2023-10-08T12:54:37;6.13;;;1.13;;
29314;SDS011;16320;53.954;9.506;2023-10-08T12:57:52;3.83;;;1.27;;
29314;SDS011;16320;53.954;9.506;2023-10-08T13:00:59;3.67;;;0.70;;
29314;SDS011;16320;53.954;9.506;2023-10-08T13:04:08;0.82;;;0.70;;
29314;SDS011;16320;53.954;9.506;2023-10-08T13:07:20;1.02;;;0.60;;
29314;SDS011;16320;53.954;9.506;2023-10-08T13:10:25;1.90;;;0.80;;
29314;SDS011;16320;53.954;9.506;2023-10-08T13:13:31;3.65;;;1.10;;
29314;SDS011;16320;53.954;9.506;2023-10-08T13:16:43;4.43;;;1.33;;
29314;SDS011;16320;53.954;9.506;2023-10-08T13:19:49;3.13;;;0.77;;
29314;SDS011;16320;53.954;9.506;2023-10-08T13:22:56;1.45;;;0.70;;
29314;SDS011;16320;53.954;9.506;2023-10-08T13:26:01;3.33;;;0.90;;
29314;SDS011;16320;53.954;9.506;2023-10-08T13:29:11;4.82;;;0.85;;
29314;SDS011;16320;53.954;9.506;2023-10-08T13:32:16;4.45;;;0.80;;
29314;SDS011;16320;53.954;9.506;2023-10-08T13:35:21;1.08;;;0.70;;
29314;SDS011;16320;53.954;9.506;2023-10-08T13:38:26;6.57;;;0.90;;
29314;SDS011;16320;53.954;9.506;2023-10-08T13:41:34;1.95;;;0.60;;
29314;SDS011;16320;53.954;9.506;2023-10-08T13:44:41;1.50;;;0.80;;
29314;SDS011;16320;53.954;9.506;2023-10-08T13:47:49;1.92;;;0.77;;
29314;SDS011;16320;53.954;9.506;2023-10-08T13:50:56;3.15;;;0.90;;
29314;SDS011;16320;53.954;9.506;2023-10-08T13:54:00;1.55;;;0.70;;
29314;SDS011;16320;53.954;9.506;2023-10-08T13:57:07;2.58;;;0.70;;
29314;SDS011;16320;53.954;9.506;2023-10-08T14:00:12;2.05;;;0.60;;
29314;SDS011;16320;53.954;9.506;2023-10-08T14:03:20;1.48;;;0.80;;
29314;SDS011;16320;53.954;9.506;2023-10-08T14:06:25;3.15;;;0.65;;
29314;SDS011;16320;53.954;9.506;2023-10-08T14:09:30;2.38;;;0.95;;
29314;SDS011;16320;53.954;9.506;2023-10-08T14:12:36;1.60;;;0.80;;
29314;SDS011;16320;53.954;9.506;2023-10-08T14:15:41;1.40;;;0.85;;
29314;SDS011;16320;53.954;9.506;2023-10-08T14:18:50;3.78;;;0.88;;
29314;SDS011;16320;53.954;9.506;2023-10-08T14:22:03;2.83;;;0.85;;
29314;SDS011;16320;53.954;9.506;2023-10-08T14:25:08;2.13;;;0.80;;
29314;SDS011;16320;53.954;9.506;2023-10-08T14:28:21;6.57;;;0.82;;
29314;SDS011;16320;53.954;9.506;2023-10-08T14:31:26;2.38;;;0.82;;
29314;SDS011;16320;53.954;9.506;2023-10-08T14:34:31;3.33;;;0.88;;
29314;SDS011;16320;53.954;9.506;2023-10-08T14:37:51;5.40;;;1.73;;
29314;SDS011;16320;53.954;9.506;2023-10-08T14:41:14;3.95;;;0.80;;
29314;SDS011;16320;53.954;9.506;2023-10-08T14:44:37;2.05;;;0.80;;
29314;SDS011;16320;53.954;9.506;2023-10-08T14:47:42;1.45;;;0.70;;
29314;SDS011;16320;53.954;9.506;2023-10-08T14:50:46;2.53;;;0.68;;
29314;SDS011;16320;53.954;9.506;2023-10-08T14:53:51;2.25;;;0.90;;
29314;SDS011;16320;53.954;9.506;2023-10-08T14:56:56;1.85;;;1.00;;
29314;SDS011;16320;53.954;9.506;2023-10-08T15:00:02;2.33;;;0.80;;
29314;SDS011;16320;53.954;9.506;2023-10-08T15:03:09;2.72;;;1.00;;
29314;SDS011;16320;53.954;9.506;2023-10-08T15:06:15;1.73;;;0.90;;
29314;SDS011;16320;53.954;9.506;2023-10-08T15:09:20;2.47;;;0.80;;
29314;SDS011;16320;53.954;9.506;2023-10-08T15:12:27;4.18;;;1.10;;
29314;SDS011;16320;53.954;9.506;2023-10-08T15:15:32;2.40;;;1.17;;
29314;SDS011;16320;53.954;9.506;2023-10-08T15:18:44;2.97;;;1.52;;
29314;SDS011;16320;53.954;9.506;2023-10-08T15:21:49;4.15;;;1.42;;
29314;SDS011;16320;53.954;9.506;2023-10-08T15:24:54;2.47;;;1.70;;
29314;SDS011;16320;53.954;9.506;2023-10-08T15:27:59;3.90;;;1.60;;
29314;SDS011;16320;53.954;9.506;2023-10-08T15:31:05;1.65;;;1.20;;
29314;SDS011;16320;53.954;9.506;2023-10-08T15:34:11;3.90;;;1.85;;
29314;SDS011;16320;53.954;9.506;2023-10-08T15:37:38;3.80;;;1.38;;
29314;SDS011;16320;53.954;9.506;2023-10-08T15:40:45;4.13;;;1.13;;
29314;SDS011;16320;53.954;9.506;2023-10-08T15:43:53;5.00;;;2.08;;
29314;SDS011;16320;53.954;9.506;2023-10-08T15:47:02;5.50;;;1.45;;
29314;SDS011;16320;53.954;9.506;2023-10-08T15:50:06;1.40;;;0.93;;
29314;SDS011;16320;53.954;9.506;2023-10-08T15:53:14;4.05;;;1.75;;
29314;SDS011;16320;53.954;9.506;2023-10-08T15:56:19;4.47;;;1.38;;
29314;SDS011;16320;53.954;9.506;2023-10-08T15:59:23;10.13;;;1.60;;
29314;SDS011;16320;53.954;9.506;2023-10-08T16:02:28;3.17;;;1.30;;
29314;SDS011;16320;53.954;9.506;2023-10-08T16:05:33;7.78;;;1.42;;
29314;SDS011;16320;53.954;9.506;2023-10-08T16:08:37;4.82;;;1.90;;
29314;SDS011;16320;53.954;9.506;2023-10-08T16:11:42;7.63;;;1.67;;
29314;SDS011;16320;53.954;9.506;2023-10-08T16:14:47;6.78;;;1.70;;
29314;SDS011;16320;53.954;9.506;2023-10-08T16:17:51;2.10;;;1.30;;
29314;SDS011;16320;53.954;9.506;2023-10-08T16:20:56;2.95;;;1.60;;
29314;SDS011;16320;53.954;9.506;2023-10-08T16:24:01;3.42;;;1.35;;
29314;SDS011;16320;53.954;9.506;2023-10-08T16:27:05;2.88;;;1.38;;
29314;SDS011;16320;53.954;9.506;2023-10-08T16:30:11;3.13;;;1.48;;
29314;SDS011;16320;53.954;9.506;2023-10-08T16:33:16;6.13;;;1.70;;
29314;SDS011;16320;53.954;9.506;2023-10-08T16:36:22;6.95;;;1.98;;
29314;SDS011;16320;53.954;9.506;2023-10-08T16:39:27;3.85;;;1.27;;
29314;SDS011;16320;53.954;9.506;2023-10-08T16:42:35;3.30;;;1.30;;
29314;SDS011;16320;53.954;9.506;2023-10-08T16:45:39;3.80;;;1.25;;
29314;SDS011;16320;53.954;9.506;2023-10-08T16:48:47;3.15;;;1.73;;
29314;SDS011;16320;53.954;9.506;2023-10-08T16:51:52;5.88;;;1.70;;
29314;SDS011;16320;53.954;9.506;2023-10-08T16:54:57;5.78;;;1.38;;
29314;SDS011;16320;53.954;9.506;2023-10-08T16:58:01;5.10;;;1.85;;
29314;SDS011;16320;53.954;9.506;2023-10-08T17:01:06;3.83;;;1.42;;
29314;SDS011;16320;53.954;9.506;2023-10-08T17:04:13;10.18;;;1.98;;
29314;SDS011;16320;53.954;9.506;2023-10-08T17:07:18;3.42;;;1.50;;
29314;SDS011;16320;53.954;9.506;2023-10-08T17:10:23;6.30;;;2.45;;
29314;SDS011;16320;53.954;9.506;2023-10-08T17:13:33;8.88;;;2.88;;
29314;SDS011;16320;53.954;9.506;2023-10-08T17:16:37;5.43;;;2.97;;
29314;SDS011;16320;53.954;9.506;2023-10-08T17:19:44;16.48;;;12.80;;
29314;SDS011;16320;53.954;9.506;2023-10-08T17:22:49;11.38;;;5.38;;
29314;SDS011;16320;53.954;9.506;2023-10-08T17:25:53;7.47;;;2.13;;
29314;SDS011;16320;53.954;9.506;2023-10-08T17:29:01;3.95;;;1.83;;
29314;SDS011;16320;53.954;9.506;2023-10-08T17:32:07;3.67;;;1.10;;
29314;SDS011;16320;53.954;9.506;2023-10-08T17:35:12;2.20;;;1.25;;
29314;SDS011;16320;53.954;9.506;2023-10-08T17:38:20;2.20;;;1.33;;
29314;SDS011;16320;53.954;9.506;2023-10-08T17:41:26;3.78;;;1.58;;
29314;SDS011;16320;53.954;9.506;2023-10-08T17:44:30;4.40;;;1.23;;
29314;SDS011;16320;53.954;9.506;2023-10-08T17:47:37;4.07;;;1.95;;
29314;SDS011;16320;53.954;9.506;2023-10-08T17:50:45;3.60;;;1.75;;
29314;SDS011;16320;53.954;9.506;2023-10-08T17:53:50;3.80;;;1.45;;
29314;SDS011;16320;53.954;9.506;2023-10-08T17:56:55;11.48;;;6.32;;
29314;SDS011;16320;53.954;9.506;2023-10-08T18:00:00;6.05;;;2.85;;
29314;SDS011;16320;53.954;9.506;2023-10-08T18:03:05;5.13;;;2.10;;
29314;SDS011;16320;53.954;9.506;2023-10-08T18:06:14;4.45;;;1.63;;
29314;SDS011;16320;53.954;9.506;2023-10-08T18:09:20;5.45;;;1.80;;
29314;SDS011;16320;53.954;9.506;2023-10-08T18:12:24;2.53;;;1.48;;
29314;SDS011;16320;53.954;9.506;2023-10-08T18:15:29;6.90;;;1.70;;
29314;SDS011;16320;53.954;9.506;2023-10-08T18:18:36;5.43;;;1.23;;
29314;SDS011;16320;53.954;9.506;2023-10-08T18:21:43;2.75;;;1.23;;
29314;SDS011;16320;53.954;9.506;2023-10-08T18:24:48;5.63;;;3.10;;
29314;SDS011;16320;53.954;9.506;2023-10-08T18:27:53;7.95;;;3.05;;
29314;SDS011;16320;53.954;9.506;2023-10-08T18:30:57;6.32;;;3.13;;
29314;SDS011;16320;53.954;9.506;2023-10-08T18:34:02;15.57;;;6.32;;
29314;SDS011;16320;53.954;9.506;2023-10-08T18:37:07;5.70;;;3.40;;
29314;SDS011;16320;53.954;9.506;2023-10-08T18:40:13;3.40;;;1.92;;
29314;SDS011;16320;53.954;9.506;2023-10-08T18:43:18;2.15;;;1.33;;
29314;SDS011;16320;53.954;9.506;2023-10-08T18:46:24;4.93;;;1.40;;
29314;SDS011;16320;53.954;9.506;2023-10-08T18:49:29;4.90;;;1.48;;
29314;SDS011;16320;53.954;9.506;2023-10-08T18:52:34;8.35;;;2.10;;
29314;SDS011;16320;53.954;9.506;2023-10-08T18:55:40;8.13;;;2.38;;
29314;SDS011;16320;53.954;9.506;2023-10-08T18:58:56;8.20;;;4.03;;
29314;SDS011;16320;53.954;9.506;2023-10-08T19:02:01;5.57;;;3.20;;
29314;SDS011;16320;53.954;9.506;2023-10-08T19:05:06;7.72;;;3.78;;
29314;SDS011;16320;53.954;9.506;2023-10-08T19:08:12;4.43;;;2.72;;
29314;SDS011;16320;53.954;9.506;2023-10-08T19:11:16;3.72;;;2.28;;
29314;SDS011;16320;53.954;9.506;2023-10-08T19:14:22;6.18;;;2.40;;